sensor_id;sensor_type;location;lat;lon;timestamp;pressure;altitude;pressure_sealevel;temperature;humidity
45864;BME280;31579;52.354;16.974;2023-04-02T00:01:52;129.8;;;-146.1;100.0
45864;BME280;31579;52.354;16.974;2023-04-02T00:03:00;126.7;;;-146.1;100.0
45864;BME280;31579;52.354;16.974;2023-04-02T00:04:02;123.7;;;-146.1;100.0
45864;BME280;31579;52.354;16.974;2023-04-02T00:08:19;117.3;;;-146.1;100.0
45864;BME280;31579;52.354;16.974;2023-04-02T00:10:27;113.6;;;-146.1;100.0
45864;BME280;31579;52.354;16.974;2023-04-02T00:11:30;112.9;;;-146.1;100.0
45864;BME280;31579;52.354;16.974;2023-04-02T00:12:33;111.5;;;-146.1;100.0
45864;BME280;31579;52.354;16.974;2023-04-02T00:13:39;109.6;;;-146.1;100.0
45864;BME280;31579;52.354;16.974;2023-04-02T00:15:46;107.6;;;-146.1;100.0
45864;BME280;31579;52.354;16.974;2023-04-02T00:16:50;106.3;;;-146.1;100.0
45864;BME280;31579;52.354;16.974;2023-04-02T00:17:53;104.6;;;-146.1;100.0
45864;BME280;31579;52.354;16.974;2023-04-02T00:18:58;102.4;;;-146.1;100.0
45864;BME280;31579;52.354;16.974;2023-04-02T00:20:03;101.5;;;-146.1;100.0
45864;BME280;31579;52.354;16.974;2023-04-02T00:22:11;116.9;;;-146.1;100.0
45864;BME280;31579;52.354;16.974;2023-04-02T00:23:13;116.1;;;-146.1;100.0
45864;BME280;31579;52.354;16.974;2023-04-02T00:24:18;117.6;;;-146.1;100.0
45864;BME280;31579;52.354;16.974;2023-04-02T00:25:21;117.0;;;-146.1;100.0
45864;BME280;31579;52.354;16.974;2023-04-02T00:27:29;112.6;;;-146.1;100.0
45864;BME280;31579;52.354;16.974;2023-04-02T00:28:32;112.5;;;-146.1;100.0
45864;BME280;31579;52.354;16.974;2023-04-02T00:29:44;110.5;;;-146.1;100.0
45864;BME280;31579;52.354;16.974;2023-04-02T00:31:48;105.9;;;-146.1;100.0
45864;BME280;31579;52.354;16.974;2023-04-02T00:32:48;104.3;;;-146.1;100.0
45864;BME280;31579;52.354;16.974;2023-04-02T00:33:52;102.1;;;-146.1;100.0
45864;BME280;31579;52.354;16.974;2023-04-02T00:34:57;100.6;;;-146.1;100.0
45864;BME280;31579;52.354;16.974;2023-04-02T00:36:03;100.7;;;-146.1;100.0
45864;BME280;31579;52.354;16.974;2023-04-02T00:37:05;98.7;;;-146.1;100.0
45864;BME280;31579;52.354;16.974;2023-04-02T00:38:16;97.2;;;-146.1;100.0
45864;BME280;31579;52.354;16.974;2023-04-02T00:39:17;94.6;;;-146.1;100.0
45864;BME280;31579;52.354;16.974;2023-04-02T00:41:23;93.2;;;-146.1;100.0
45864;BME280;31579;52.354;16.974;2023-04-02T00:42:25;90.9;;;-146.1;100.0
45864;BME280;31579;52.354;16.974;2023-04-02T00:43:30;90.5;;;-146.1;100.0
45864;BME280;31579;52.354;16.974;2023-04-02T00:45:37;86.2;;;-146.1;100.0
45864;BME280;31579;52.354;16.974;2023-04-02T00:46:42;86.8;;;-146.1;100.0
45864;BME280;31579;52.354;16.974;2023-04-02T00:47:45;84.5;;;-146.1;100.0
45864;BME280;31579;52.354;16.974;2023-04-02T00:50:59;81.2;;;-146.1;100.0
45864;BME280;31579;52.354;16.974;2023-04-02T00:52:03;79.0;;;-146.1;100.0
45864;BME280;31579;52.354;16.974;2023-04-02T00:53:14;79.9;;;-146.1;100.0
45864;BME280;31579;52.354;16.974;2023-04-02T00:54:10;79.4;;;-146.1;100.0
45864;BME280;31579;52.354;16.974;2023-04-02T00:55:14;80.8;;;-146.1;100.0
45864;BME280;31579;52.354;16.974;2023-04-02T00:56:20;79.0;;;-146.1;100.0
45864;BME280;31579;52.354;16.974;2023-04-02T00:57:21;78.0;;;-146.1;100.0
45864;BME280;31579;52.354;16.974;2023-04-02T00:59:32;76.1;;;-146.1;100.0
45864;BME280;31579;52.354;16.974;2023-04-02T01:00:34;74.5;;;-146.1;100.0
45864;BME280;31579;52.354;16.974;2023-04-02T01:01:37;75.0;;;-146.1;100.0
45864;BME280;31579;52.354;16.974;2023-04-02T01:02:41;72.6;;;-146.1;100.0
45864;BME280;31579;52.354;16.974;2023-04-02T01:04:54;70.8;;;-146.1;100.0
45864;BME280;31579;52.354;16.974;2023-04-02T01:05:56;71.3;;;-146.1;100.0
45864;BME280;31579;52.354;16.974;2023-04-02T01:07:00;70.7;;;-146.1;100.0
45864;BME280;31579;52.354;16.974;2023-04-02T01:08:56;92.7;;;-146.1;100.0
45864;BME280;31579;52.354;16.974;2023-04-02T01:09:16;74.6;;;-146.1;100.0
45864;BME280;31579;52.354;16.974;2023-04-02T01:11:27;61.7;;;-146.1;100.0
45864;BME280;31579;52.354;16.974;2023-04-02T01:14:40;56.6;;;-146.1;100.0
45864;BME280;31579;52.354;16.974;2023-04-02T01:15:40;55.1;;;-146.1;100.0
45864;BME280;31579;52.354;16.974;2023-04-02T01:23:24;221.6;;;-146.1;100.0
45864;BME280;31579;52.354;16.974;2023-04-02T01:24:23;198.6;;;-146.1;100.0
45864;BME280;31579;52.354;16.974;2023-04-02T01:27:38;65.6;;;-146.1;100.0
45864;BME280;31579;52.354;16.974;2023-04-02T01:29:45;49.0;;;-146.1;100.0
45864;BME280;31579;52.354;16.974;2023-04-02T01:30:50;46.9;;;-146.1;100.0
45864;BME280;31579;52.354;16.974;2023-04-02T01:31:51;42.3;;;-146.1;100.0
45864;BME280;31579;52.354;16.974;2023-04-02T01:32:55;41.2;;;-146.1;100.0
45864;BME280;31579;52.354;16.974;2023-04-02T01:33:59;38.1;;;-146.1;100.0
45864;BME280;31579;52.354;16.974;2023-04-02T01:35:03;37.1;;;-146.1;100.0
45864;BME280;31579;52.354;16.974;2023-04-02T01:36:10;35.4;;;-146.1;100.0
45864;BME280;31579;52.354;16.974;2023-04-02T01:38:17;32.1;;;-146.1;100.0
45864;BME280;31579;52.354;16.974;2023-04-02T01:44:41;29.2;;;-146.1;100.0
45864;BME280;31579;52.354;16.974;2023-04-02T01:45:43;29.8;;;-146.1;100.0
45864;BME280;31579;52.354;16.974;2023-04-02T01:46:47;29.0;;;-146.1;100.0
45864;BME280;31579;52.354;16.974;2023-04-02T01:47:51;28.7;;;-146.1;100.0
45864;BME280;31579;52.354;16.974;2023-04-02T01:48:55;26.8;;;-146.1;100.0
45864;BME280;31579;52.354;16.974;2023-04-02T01:50:03;26.4;;;-146.1;100.0
45864;BME280;31579;52.354;16.974;2023-04-02T01:51:05;26.4;;;-146.1;100.0
45864;BME280;31579;52.354;16.974;2023-04-02T01:52:07;28.8;;;-146.1;100.0
45864;BME280;31579;52.354;16.974;2023-04-02T01:53:12;28.8;;;-146.1;100.0
45864;BME280;31579;52.354;16.974;2023-04-02T01:54:15;27.4;;;-146.1;100.0
45864;BME280;31579;52.354;16.974;2023-04-02T01:55:24;28.4;;;-146.1;100.0
45864;BME280;31579;52.354;16.974;2023-04-02T01:56:23;28.6;;;-146.1;100.0
45864;BME280;31579;52.354;16.974;2023-04-02T01:57:27;29.0;;;-146.1;100.0
45864;BME280;31579;52.354;16.974;2023-04-02T01:58:32;29.5;;;-146.1;100.0
45864;BME280;31579;52.354;16.974;2023-04-02T01:59:36;30.9;;;-146.1;100.0
45864;BME280;31579;52.354;16.974;2023-04-02T02:00:42;30.5;;;-146.1;100.0
45864;BME280;31579;52.354;16.974;2023-04-02T02:01:47;30.2;;;-146.1;100.0
45864;BME280;31579;52.354;16.974;2023-04-02T02:02:48;33.8;;;-146.1;100.0
45864;BME280;31579;52.354;16.974;2023-04-02T02:03:52;33.4;;;-146.1;100.0
45864;BME280;31579;52.354;16.974;2023-04-02T02:04:56;32.8;;;-146.1;100.0
45864;BME280;31579;52.354;16.974;2023-04-02T02:06:00;33.3;;;-146.1;100.0
45864;BME280;31579;52.354;16.974;2023-04-02T02:07:05;32.2;;;-146.1;100.0
45864;BME280;31579;52.354;16.974;2023-04-02T02:09:15;29.6;;;-146.1;100.0
45864;BME280;31579;52.354;16.974;2023-04-02T02:10:21;27.1;;;-146.1;100.0
45864;BME280;31579;52.354;16.974;2023-04-02T02:11:22;26.5;;;-146.1;100.0
45864;BME280;31579;52.354;16.974;2023-04-02T02:12:25;24.9;;;-146.1;100.0
45864;BME280;31579;52.354;16.974;2023-04-02T02:13:29;23.1;;;-146.1;100.0
45864;BME280;31579;52.354;16.974;2023-04-02T02:14:33;23.3;;;-146.1;100.0
45864;BME280;31579;52.354;16.974;2023-04-02T02:15:37;23.2;;;-146.1;100.0
45864;BME280;31579;52.354;16.974;2023-04-02T02:16:41;23.5;;;-146.1;100.0
45864;BME280;31579;52.354;16.974;2023-04-02T02:17:46;23.0;;;-146.1;100.0
45864;BME280;31579;52.354;16.974;2023-04-02T02:18:52;25.3;;;-146.1;100.0
45864;BME280;31579;52.354;16.974;2023-04-02T02:19:54;24.5;;;-146.1;100.0
45864;BME280;31579;52.354;16.974;2023-04-02T02:20:57;24.1;;;-146.1;100.0
45864;BME280;31579;52.354;16.974;2023-04-02T02:23:05;22.7;;;-146.1;100.0
45864;BME280;31579;52.354;16.974;2023-04-02T02:25:14;20.7;;;-146.1;100.0
45864;BME280;31579;52.354;16.974;2023-04-02T02:26:17;22.7;;;-146.1;100.0
45864;BME280;31579;52.354;16.974;2023-04-02T02:29:30;22.9;;;-146.1;100.0
45864;BME280;31579;52.354;16.974;2023-04-02T02:31:37;22.9;;;-146.1;100.0
45864;BME280;31579;52.354;16.974;2023-04-02T02:32:45;23.0;;;-146.1;100.0
45864;BME280;31579;52.354;16.974;2023-04-02T02:33:46;23.0;;;-146.1;100.0
45864;BME280;31579;52.354;16.974;2023-04-02T02:34:51;23.1;;;-146.1;100.0
45864;BME280;31579;52.354;16.974;2023-04-02T02:38:16;30.9;;;-146.1;100.0
45864;BME280;31579;52.354;16.974;2023-04-02T02:40:11;30.5;;;-146.1;100.0
45864;BME280;31579;52.354;16.974;2023-04-02T02:43:21;28.0;;;-146.1;100.0
45864;BME280;31579;52.354;16.974;2023-04-02T02:44:27;28.1;;;-146.1;100.0
45864;BME280;31579;52.354;16.974;2023-04-02T02:45:31;26.4;;;-146.1;100.0
45864;BME280;31579;52.354;16.974;2023-04-02T02:46:34;25.8;;;-146.1;100.0
45864;BME280;31579;52.354;16.974;2023-04-02T02:47:37;25.0;;;-146.1;100.0
45864;BME280;31579;52.354;16.974;2023-04-02T02:48:41;26.4;;;-146.1;100.0
45864;BME280;31579;52.354;16.974;2023-04-02T02:49:46;24.9;;;-146.1;100.0
45864;BME280;31579;52.354;16.974;2023-04-02T02:50:49;24.2;;;-146.1;100.0
45864;BME280;31579;52.354;16.974;2023-04-02T02:51:59;24.2;;;-146.1;100.0
45864;BME280;31579;52.354;16.974;2023-04-02T02:52:58;24.5;;;-146.1;100.0
45864;BME280;31579;52.354;16.974;2023-04-02T02:54:01;23.1;;;-146.1;100.0
45864;BME280;31579;52.354;16.974;2023-04-02T02:56:09;22.0;;;-146.1;100.0
45864;BME280;31579;52.354;16.974;2023-04-02T02:57:16;23.0;;;-146.1;100.0
45864;BME280;31579;52.354;16.974;2023-04-02T02:58:18;22.5;;;-146.1;100.0
45864;BME280;31579;52.354;16.974;2023-04-02T02:59:21;21.5;;;-146.1;100.0
45864;BME280;31579;52.354;16.974;2023-04-02T03:00:25;21.7;;;-146.1;100.0
45864;BME280;31579;52.354;16.974;2023-04-02T03:01:29;20.2;;;-146.1;100.0
45864;BME280;31579;52.354;16.974;2023-04-02T03:02:34;21.6;;;-146.1;100.0
45864;BME280;31579;52.354;16.974;2023-04-02T03:03:37;19.6;;;-146.1;100.0
45864;BME280;31579;52.354;16.974;2023-04-02T03:04:44;19.1;;;-146.1;100.0
45864;BME280;31579;52.354;16.974;2023-04-02T03:05:48;17.9;;;-146.1;100.0
45864;BME280;31579;52.354;16.974;2023-04-02T03:06:51;18.3;;;-146.1;100.0
45864;BME280;31579;52.354;16.974;2023-04-02T03:07:54;17.7;;;-146.1;100.0
45864;BME280;31579;52.354;16.974;2023-04-02T03:10:03;7.3;;;-146.1;100.0
45864;BME280;31579;52.354;16.974;2023-04-02T03:12:19;20.1;;;-146.1;100.0
45864;BME280;31579;52.354;16.974;2023-04-02T03:17:30;39.8;;;-146.1;100.0
45864;BME280;31579;52.354;16.974;2023-04-02T03:18:35;39.3;;;-146.1;100.0
45864;BME280;31579;52.354;16.974;2023-04-02T03:19:40;38.1;;;-146.1;100.0
45864;BME280;31579;52.354;16.974;2023-04-02T03:20:44;34.5;;;-146.1;100.0
45864;BME280;31579;52.354;16.974;2023-04-02T03:23:55;32.9;;;-146.1;100.0
45864;BME280;31579;52.354;16.974;2023-04-02T03:26:02;33.9;;;-146.1;100.0
45864;BME280;31579;52.354;16.974;2023-04-02T03:28:17;50.6;;;-146.1;100.0
45864;BME280;31579;52.354;16.974;2023-04-02T03:30:28;31.4;;;-146.1;100.0
45864;BME280;31579;52.354;16.974;2023-04-02T03:32:33;24.3;;;-146.1;100.0
45864;BME280;31579;52.354;16.974;2023-04-02T03:34:40;30.9;;;-146.1;100.0
45864;BME280;31579;52.354;16.974;2023-04-02T03:35:45;28.7;;;-146.1;100.0
45864;BME280;31579;52.354;16.974;2023-04-02T03:36:50;25.2;;;-146.1;100.0
45864;BME280;31579;52.354;16.974;2023-04-02T03:37:52;30.3;;;-146.1;100.0
45864;BME280;31579;52.354;16.974;2023-04-02T03:42:12;22.4;;;-146.1;100.0
45864;BME280;31579;52.354;16.974;2023-04-02T03:48:30;48.4;;;-146.1;100.0
45864;BME280;31579;52.354;16.974;2023-04-02T03:49:35;46.0;;;-146.1;100.0
45864;BME280;31579;52.354;16.974;2023-04-02T03:50:37;43.3;;;-146.1;100.0
45864;BME280;31579;52.354;16.974;2023-04-02T03:52:43;32.0;;;-146.1;100.0
45864;BME280;31579;52.354;16.974;2023-04-02T03:53:47;33.3;;;-146.1;100.0
45864;BME280;31579;52.354;16.974;2023-04-02T03:54:52;39.7;;;-146.1;100.0
45864;BME280;31579;52.354;16.974;2023-04-02T03:55:55;39.9;;;-146.1;100.0
45864;BME280;31579;52.354;16.974;2023-04-02T03:56:59;38.6;;;-146.1;100.0
45864;BME280;31579;52.354;16.974;2023-04-02T04:00:20;27.9;;;-146.1;100.0
45864;BME280;31579;52.354;16.974;2023-04-02T04:01:27;18.4;;;-146.1;100.0
45864;BME280;31579;52.354;16.974;2023-04-02T04:04:38;12.6;;;-146.1;100.0
45864;BME280;31579;52.354;16.974;2023-04-02T04:06:45;3.5;;;-146.1;100.0
45864;BME280;31579;52.354;16.974;2023-04-02T04:07:49;-1.8;;;-146.1;100.0
45864;BME280;31579;52.354;16.974;2023-04-02T04:08:53;0.7;;;-146.1;100.0
45864;BME280;31579;52.354;16.974;2023-04-02T04:09:55;-0.1;;;-146.1;100.0
45864;BME280;31579;52.354;16.974;2023-04-02T04:11:00;5.9;;;-146.1;100.0
45864;BME280;31579;52.354;16.974;2023-04-02T04:13:10;14.0;;;-146.1;100.0
45864;BME280;31579;52.354;16.974;2023-04-02T04:14:13;9.4;;;-146.1;100.0
45864;BME280;31579;52.354;16.974;2023-04-02T04:16:19;15.4;;;-146.1;100.0
45864;BME280;31579;52.354;16.974;2023-04-02T04:20:35;19.2;;;-146.1;100.0
45864;BME280;31579;52.354;16.974;2023-04-02T04:21:37;19.5;;;-146.1;100.0
45864;BME280;31579;52.354;16.974;2023-04-02T04:22:41;16.2;;;-146.1;100.0
45864;BME280;31579;52.354;16.974;2023-04-02T04:23:46;15.7;;;-146.1;100.0
45864;BME280;31579;52.354;16.974;2023-04-02T04:24:48;4.5;;;-146.1;100.0
45864;BME280;31579;52.354;16.974;2023-04-02T04:26:59;2.9;;;-146.1;100.0
45864;BME280;31579;52.354;16.974;2023-04-02T04:29:08;14.7;;;-146.1;100.0
45864;BME280;31579;52.354;16.974;2023-04-02T04:33:22;10.3;;;-146.1;100.0
45864;BME280;31579;52.354;16.974;2023-04-02T04:34:26;5.8;;;-146.1;100.0
45864;BME280;31579;52.354;16.974;2023-04-02T04:35:29;6.5;;;-146.1;100.0
45864;BME280;31579;52.354;16.974;2023-04-02T04:36:32;7.2;;;-146.1;100.0
45864;BME280;31579;52.354;16.974;2023-04-02T04:37:38;-9.9;;;-146.1;100.0
45864;BME280;31579;52.354;16.974;2023-04-02T04:38:37;-20.5;;;-146.1;100.0
45864;BME280;31579;52.354;16.974;2023-04-02T04:39:43;-4.5;;;-146.1;100.0
45864;BME280;31579;52.354;16.974;2023-04-02T04:40:47;1.7;;;-146.1;100.0
45864;BME280;31579;52.354;16.974;2023-04-02T04:41:49;4.3;;;-146.1;100.0
45864;BME280;31579;52.354;16.974;2023-04-02T04:42:54;5.4;;;-146.1;100.0
45864;BME280;31579;52.354;16.974;2023-04-02T04:45:05;2.5;;;-146.1;100.0
45864;BME280;31579;52.354;16.974;2023-04-02T04:47:10;-1.2;;;-146.1;100.0
45864;BME280;31579;52.354;16.974;2023-04-02T04:48:17;-41.4;;;-146.1;100.0
45864;BME280;31579;52.354;16.974;2023-04-02T04:49:21;-30.9;;;-146.1;100.0
45864;BME280;31579;52.354;16.974;2023-04-02T04:51:26;-3.1;;;-146.1;100.0
45864;BME280;31579;52.354;16.974;2023-04-02T04:52:29;11.4;;;-146.1;100.0
45864;BME280;31579;52.354;16.974;2023-04-02T04:53:30;2.1;;;-146.1;100.0
45864;BME280;31579;52.354;16.974;2023-04-02T04:54:36;12.9;;;-146.1;100.0
45864;BME280;31579;52.354;16.974;2023-04-02T04:55:39;2.7;;;-146.1;100.0
45864;BME280;31579;52.354;16.974;2023-04-02T04:57:50;-3.4;;;-146.1;100.0
45864;BME280;31579;52.354;16.974;2023-04-02T04:58:58;37.1;;;-146.1;100.0
45864;BME280;31579;52.354;16.974;2023-04-02T05:02:17;7.4;;;-146.1;100.0
45864;BME280;31579;52.354;16.974;2023-04-02T05:05:17;12.8;;;-146.1;100.0
45864;BME280;31579;52.354;16.974;2023-04-02T05:11:12;127.0;;;-146.1;100.0
45864;BME280;31579;52.354;16.974;2023-04-02T05:18:37;166.9;;;-146.1;100.0
45864;BME280;31579;52.354;16.974;2023-04-02T05:24:55;97.7;;;-146.1;100.0
45864;BME280;31579;52.354;16.974;2023-04-02T05:27:01;111.9;;;-146.1;100.0
45864;BME280;31579;52.354;16.974;2023-04-02T05:28:05;138.6;;;-146.1;100.0
45864;BME280;31579;52.354;16.974;2023-04-02T05:29:10;109.6;;;-146.1;100.0
45864;BME280;31579;52.354;16.974;2023-04-02T05:30:27;133.0;;;-146.1;100.0
45864;BME280;31579;52.354;16.974;2023-04-02T05:31:15;104.4;;;-146.1;100.0
45864;BME280;31579;52.354;16.974;2023-04-02T05:32:20;138.8;;;-146.1;100.0
45864;BME280;31579;52.354;16.974;2023-04-02T05:34:12;136.0;;;-146.1;100.0
45864;BME280;31579;52.354;16.974;2023-04-02T05:35:16;146.4;;;-146.1;100.0
45864;BME280;31579;52.354;16.974;2023-04-02T05:36:21;153.4;;;-146.1;100.0
45864;BME280;31579;52.354;16.974;2023-04-02T05:37:25;154.6;;;-146.1;100.0
45864;BME280;31579;52.354;16.974;2023-04-02T05:38:29;116.1;;;-146.1;100.0
45864;BME280;31579;52.354;16.974;2023-04-02T05:39:32;141.4;;;-146.1;100.0
45864;BME280;31579;52.354;16.974;2023-04-02T05:40:37;154.1;;;-146.1;100.0
45864;BME280;31579;52.354;16.974;2023-04-02T05:41:42;153.9;;;-146.1;100.0
45864;BME280;31579;52.354;16.974;2023-04-02T05:42:44;109.0;;;-146.1;100.0
45864;BME280;31579;52.354;16.974;2023-04-02T05:43:47;96.2;;;-146.1;100.0
45864;BME280;31579;52.354;16.974;2023-04-02T05:46:02;77.7;;;-146.1;100.0
45864;BME280;31579;52.354;16.974;2023-04-02T05:48:13;149.3;;;-146.1;100.0
45864;BME280;31579;52.354;16.974;2023-04-02T05:49:17;162.9;;;-146.1;100.0
45864;BME280;31579;52.354;16.974;2023-04-02T05:50:18;119.0;;;-146.1;100.0
45864;BME280;31579;52.354;16.974;2023-04-02T05:51:22;115.4;;;-146.1;100.0
45864;BME280;31579;52.354;16.974;2023-04-02T05:52:26;151.7;;;-146.1;100.0
45864;BME280;31579;52.354;16.974;2023-04-02T05:53:28;169.3;;;-146.1;100.0
45864;BME280;31579;52.354;16.974;2023-04-02T05:54:36;175.5;;;-146.1;100.0
45864;BME280;31579;52.354;16.974;2023-04-02T05:56:41;170.5;;;-146.1;100.0
45864;BME280;31579;52.354;16.974;2023-04-02T05:58:50;163.0;;;-146.1;100.0
45864;BME280;31579;52.354;16.974;2023-04-02T05:59:53;116.8;;;-146.1;100.0
45864;BME280;31579;52.354;16.974;2023-04-02T06:02:02;164.9;;;-146.1;100.0
45864;BME280;31579;52.354;16.974;2023-04-02T06:05:12;128.5;;;-146.1;100.0
45864;BME280;31579;52.354;16.974;2023-04-02T06:06:16;167.4;;;-146.1;100.0
45864;BME280;31579;52.354;16.974;2023-04-02T06:07:21;170.0;;;-146.1;100.0
45864;BME280;31579;52.354;16.974;2023-04-02T06:08:25;178.9;;;-146.1;100.0
45864;BME280;31579;52.354;16.974;2023-04-02T06:10:32;186.9;;;-146.1;100.0
45864;BME280;31579;52.354;16.974;2023-04-02T06:12:42;184.8;;;-146.1;100.0
45864;BME280;31579;52.354;16.974;2023-04-02T06:13:42;200.5;;;-146.1;100.0
45864;BME280;31579;52.354;16.974;2023-04-02T06:14:46;213.7;;;-146.1;100.0
45864;BME280;31579;52.354;16.974;2023-04-02T06:15:50;220.6;;;-146.1;100.0
45864;BME280;31579;52.354;16.974;2023-04-02T06:16:52;91.5;;;-146.1;100.0
45864;BME280;31579;52.354;16.974;2023-04-02T06:17:58;137.0;;;-146.1;100.0
45864;BME280;31579;52.354;16.974;2023-04-02T06:19:01;203.6;;;-146.1;100.0
45864;BME280;31579;52.354;16.974;2023-04-02T06:20:05;222.9;;;-146.1;100.0
45864;BME280;31579;52.354;16.974;2023-04-02T06:21:10;240.7;;;-146.1;100.0
45864;BME280;31579;52.354;16.974;2023-04-02T06:22:17;257.5;;;-146.1;100.0
45864;BME280;31579;52.354;16.974;2023-04-02T06:23:19;262.2;;;-146.1;100.0
45864;BME280;31579;52.354;16.974;2023-04-02T06:24:22;250.2;;;-146.1;100.0
45864;BME280;31579;52.354;16.974;2023-04-02T06:27:34;247.1;;;-146.1;100.0
45864;BME280;31579;52.354;16.974;2023-04-02T06:28:42;256.7;;;-146.1;100.0
45864;BME280;31579;52.354;16.974;2023-04-02T06:29:42;252.6;;;-146.1;100.0
45864;BME280;31579;52.354;16.974;2023-04-02T06:30:46;264.5;;;-146.1;100.0
45864;BME280;31579;52.354;16.974;2023-04-02T06:31:51;267.4;;;-146.1;100.0
45864;BME280;31579;52.354;16.974;2023-04-02T06:32:52;106.3;;;-146.1;100.0
45864;BME280;31579;52.354;16.974;2023-04-02T06:33:57;222.9;;;-146.1;100.0
45864;BME280;31579;52.354;16.974;2023-04-02T06:35:01;225.9;;;-146.1;100.0
45864;BME280;31579;52.354;16.974;2023-04-02T06:36:04;164.5;;;-146.1;100.0
45864;BME280;31579;52.354;16.974;2023-04-02T06:39:17;259.0;;;-146.1;100.0
45864;BME280;31579;52.354;16.974;2023-04-02T06:41:24;276.9;;;-146.1;100.0
45864;BME280;31579;52.354;16.974;2023-04-02T06:43:34;292.9;;;-146.1;100.0
45864;BME280;31579;52.354;16.974;2023-04-02T06:44:36;288.8;;;-146.1;100.0
45864;BME280;31579;52.354;16.974;2023-04-02T06:45:40;268.7;;;-146.1;100.0
45864;BME280;31579;52.354;16.974;2023-04-02T06:46:46;260.0;;;-146.1;100.0
45864;BME280;31579;52.354;16.974;2023-04-02T06:47:48;252.8;;;-146.1;100.0
45864;BME280;31579;52.354;16.974;2023-04-02T06:48:58;364.1;;;-146.1;100.0
45864;BME280;31579;52.354;16.974;2023-04-02T06:51:05;185.7;;;-146.1;100.0
45864;BME280;31579;52.354;16.974;2023-04-02T06:53:17;225.4;;;-146.1;100.0
45864;BME280;31579;52.354;16.974;2023-04-02T06:54:15;217.5;;;-146.1;100.0
45864;BME280;31579;52.354;16.974;2023-04-02T06:54:57;87.5;;;-146.1;100.0
45864;BME280;31579;52.354;16.974;2023-04-02T06:57:05;170.2;;;-146.1;100.0
45864;BME280;31579;52.354;16.974;2023-04-02T06:58:09;172.1;;;-146.1;100.0
45864;BME280;31579;52.354;16.974;2023-04-02T06:59:13;100.7;;;-146.1;100.0
45864;BME280;31579;52.354;16.974;2023-04-02T07:01:24;141.5;;;-146.1;100.0
45864;BME280;31579;52.354;16.974;2023-04-02T07:03:30;166.5;;;-146.1;100.0
45864;BME280;31579;52.354;16.974;2023-04-02T07:04:32;166.3;;;-146.1;100.0
45864;BME280;31579;52.354;16.974;2023-04-02T07:05:36;170.4;;;-146.1;100.0
45864;BME280;31579;52.354;16.974;2023-04-02T07:06:40;176.3;;;-146.1;100.0
45864;BME280;31579;52.354;16.974;2023-04-02T07:07:44;179.4;;;-146.1;100.0
45864;BME280;31579;52.354;16.974;2023-04-02T07:08:48;175.2;;;-146.1;100.0
45864;BME280;31579;52.354;16.974;2023-04-02T07:09:54;228.3;;;-146.1;100.0
45864;BME280;31579;52.354;16.974;2023-04-02T07:10:59;191.8;;;-146.1;100.0
45864;BME280;31579;52.354;16.974;2023-04-02T07:12:12;193.0;;;-146.1;100.0
45864;BME280;31579;52.354;16.974;2023-04-02T07:13:12;196.1;;;-146.1;100.0
45864;BME280;31579;52.354;16.974;2023-04-02T07:14:12;191.3;;;-146.1;100.0
45864;BME280;31579;52.354;16.974;2023-04-02T07:15:17;202.8;;;-146.1;100.0
45864;BME280;31579;52.354;16.974;2023-04-02T07:16:21;204.6;;;-146.1;100.0
45864;BME280;31579;52.354;16.974;2023-04-02T07:17:24;210.2;;;-146.1;100.0
45864;BME280;31579;52.354;16.974;2023-04-02T07:18:29;212.4;;;-146.1;100.0
45864;BME280;31579;52.354;16.974;2023-04-02T07:19:33;228.4;;;-146.1;100.0
45864;BME280;31579;52.354;16.974;2023-04-02T07:20:36;228.3;;;-146.1;100.0
45864;BME280;31579;52.354;16.974;2023-04-02T07:21:40;212.1;;;-146.1;100.0
45864;BME280;31579;52.354;16.974;2023-04-02T07:22:44;207.4;;;-146.1;100.0
45864;BME280;31579;52.354;16.974;2023-04-02T07:23:48;213.2;;;-146.1;100.0
45864;BME280;31579;52.354;16.974;2023-04-02T07:24:52;228.0;;;-146.1;100.0
45864;BME280;31579;52.354;16.974;2023-04-02T07:25:56;223.0;;;-146.1;100.0
45864;BME280;31579;52.354;16.974;2023-04-02T07:27:00;215.8;;;-146.1;100.0
45864;BME280;31579;52.354;16.974;2023-04-02T07:28:05;207.0;;;-146.1;100.0
45864;BME280;31579;52.354;16.974;2023-04-02T07:29:13;194.9;;;-146.1;100.0
45864;BME280;31579;52.354;16.974;2023-04-02T07:30:14;179.9;;;-146.1;100.0
45864;BME280;31579;52.354;16.974;2023-04-02T07:31:19;170.5;;;-146.1;100.0
45864;BME280;31579;52.354;16.974;2023-04-02T07:32:22;156.6;;;-146.1;100.0
45864;BME280;31579;52.354;16.974;2023-04-02T07:33:27;148.0;;;-146.1;100.0
45864;BME280;31579;52.354;16.974;2023-04-02T07:34:30;155.2;;;-146.1;100.0
45864;BME280;31579;52.354;16.974;2023-04-02T07:35:34;168.7;;;-146.1;100.0
45864;BME280;31579;52.354;16.974;2023-04-02T07:36:38;167.7;;;-146.1;100.0
45864;BME280;31579;52.354;16.974;2023-04-02T07:37:43;163.7;;;-146.1;100.0
45864;BME280;31579;52.354;16.974;2023-04-02T07:38:47;177.8;;;-146.1;100.0
45864;BME280;31579;52.354;16.974;2023-04-02T07:39:51;186.5;;;-146.1;100.0
45864;BME280;31579;52.354;16.974;2023-04-02T07:40:53;70.0;;;-146.1;100.0
45864;BME280;31579;52.354;16.974;2023-04-02T07:41:57;86.0;;;-146.1;100.0
45864;BME280;31579;52.354;16.974;2023-04-02T07:42:59;139.7;;;-146.1;100.0
45864;BME280;31579;52.354;16.974;2023-04-02T07:44:03;148.6;;;-146.1;100.0
45864;BME280;31579;52.354;16.974;2023-04-02T07:45:07;157.6;;;-146.1;100.0
45864;BME280;31579;52.354;16.974;2023-04-02T07:46:12;180.6;;;-146.1;100.0
45864;BME280;31579;52.354;16.974;2023-04-02T07:47:15;182.5;;;-146.1;100.0
45864;BME280;31579;52.354;16.974;2023-04-02T07:48:18;125.8;;;-146.1;100.0
45864;BME280;31579;52.354;16.974;2023-04-02T07:49:22;188.7;;;-146.1;100.0
45864;BME280;31579;52.354;16.974;2023-04-02T07:50:26;175.9;;;-146.1;100.0
45864;BME280;31579;52.354;16.974;2023-04-02T07:51:30;174.2;;;-146.1;100.0
45864;BME280;31579;52.354;16.974;2023-04-02T07:53:38;209.6;;;-146.1;100.0
45864;BME280;31579;52.354;16.974;2023-04-02T07:54:42;206.1;;;-146.1;100.0
45864;BME280;31579;52.354;16.974;2023-04-02T07:55:50;201.3;;;-146.1;100.0
45864;BME280;31579;52.354;16.974;2023-04-02T07:56:50;213.9;;;-146.1;100.0
45864;BME280;31579;52.354;16.974;2023-04-02T07:57:55;134.5;;;-146.1;100.0
45864;BME280;31579;52.354;16.974;2023-04-02T07:58:55;113.8;;;-146.1;100.0
45864;BME280;31579;52.354;16.974;2023-04-02T07:59:59;184.6;;;-146.1;100.0
45864;BME280;31579;52.354;16.974;2023-04-02T08:01:03;195.8;;;-146.1;100.0
45864;BME280;31579;52.354;16.974;2023-04-02T08:02:28;200.2;;;-146.1;100.0
45864;BME280;31579;52.354;16.974;2023-04-02T08:03:12;207.7;;;-146.1;100.0